createdAt,value
2023-01-04T05:48:51.223Z,0.61
2023-01-04T06:03:42.034Z,9.07
2023-01-04T06:18:40.846Z,4.14
2023-01-04T06:33:41.259Z,0.47
2023-01-04T06:48:40.475Z,7.1
2023-01-04T07:03:40.584Z,2.59
2023-01-04T07:18:40.248Z,5.12
2023-01-04T07:33:40.333Z,0.16
2023-01-04T07:48:40.467Z,11.23
2023-01-04T08:03:40.620Z,8.57
2023-01-04T08:18:40.486Z,20.18
2023-01-04T09:03:40.630Z,21.54
2023-01-04T09:18:40.454Z,30.12
2023-01-04T09:34:12.543Z,28.57
2023-01-04T09:48:40.011Z,23.1
2023-01-04T10:03:40.673Z,7.12
2023-01-04T10:33:40.277Z,1.65
2023-01-04T10:48:40.363Z,3.56
2023-01-04T11:03:40.381Z,1.64
2023-01-04T11:18:40.497Z,28.42
2023-01-04T11:33:40.611Z,11.15
2023-01-04T11:48:40.275Z,2.74
2023-01-04T12:03:40.663Z,1.21
2023-01-04T12:18:40.250Z,4.02
2023-01-04T12:33:40.508Z,6.09
2023-01-04T12:48:40.058Z,19.76
2023-01-04T13:03:40.108Z,2.72
2023-01-04T13:18:40.313Z,5.82
2023-01-04T13:48:40.927Z,1.86
2023-01-04T14:18:45.800Z,4
2023-01-04T14:33:40.625Z,5.89
2023-01-04T15:03:40.428Z,3.52
2023-01-04T15:18:40.723Z,21.68
2023-01-04T15:33:40.435Z,6.57
2023-01-04T15:48:40.928Z,14.67
2023-01-04T16:03:40.041Z,26.69
2023-01-04T16:18:40.621Z,27.18
2023-01-04T16:33:40.168Z,24.28
2023-01-04T16:48:40.606Z,29.24
2023-01-04T18:18:40.279Z,5.56
2023-01-04T18:48:40.483Z,3.64
2023-01-04T19:03:40.144Z,3.55
2023-01-04T19:18:40.293Z,3.24
2023-01-04T19:33:40.615Z,2.07
2023-01-04T19:48:40.697Z,2.79
2023-01-04T20:03:42.724Z,0.9
2023-01-04T20:18:40.752Z,0.07
2023-01-04T20:33:44.403Z,0.53
2023-01-04T21:03:40.447Z,4.58
2023-01-04T21:18:40.351Z,0.64
2023-01-04T21:33:41.544Z,0.01
2023-01-04T21:48:40.666Z,0
2023-01-04T22:18:40.891Z,0
2023-01-04T22:33:40.764Z,0
2023-01-04T22:48:40.342Z,0
2023-01-04T23:18:40.483Z,0
